sensor_id;sensor_type;location;lat;lon;timestamp;P1;durP1;ratioP1;P2;durP2;ratioP2
5752;SDS011;2901;42.140;24.760;2023-12-04T00:01:29;5.73;;;5.30;;
5752;SDS011;2901;42.140;24.760;2023-12-04T00:03:54;5.63;;;5.33;;
5752;SDS011;2901;42.140;24.760;2023-12-04T00:06:20;6.17;;;5.77;;
5752;SDS011;2901;42.140;24.760;2023-12-04T00:08:46;6.10;;;5.60;;
5752;SDS011;2901;42.140;24.760;2023-12-04T00:11:11;6.07;;;5.67;;
5752;SDS011;2901;42.140;24.760;2023-12-04T00:13:37;6.20;;;5.67;;
5752;SDS011;2901;42.140;24.760;2023-12-04T00:16:02;5.50;;;5.20;;
5752;SDS011;2901;42.140;24.760;2023-12-04T00:18:28;8.77;;;5.80;;
5752;SDS011;2901;42.140;24.760;2023-12-04T00:20:53;6.93;;;5.77;;
5752;SDS011;2901;42.140;24.760;2023-12-04T00:23:18;6.17;;;5.67;;
5752;SDS011;2901;42.140;24.760;2023-12-04T00:25:44;6.53;;;6.13;;
5752;SDS011;2901;42.140;24.760;2023-12-04T00:28:09;6.13;;;5.63;;
5752;SDS011;2901;42.140;24.760;2023-12-04T00:30:35;6.27;;;5.87;;
5752;SDS011;2901;42.140;24.760;2023-12-04T00:33:00;6.57;;;6.03;;
5752;SDS011;2901;42.140;24.760;2023-12-04T00:35:25;6.60;;;6.10;;
5752;SDS011;2901;42.140;24.760;2023-12-04T00:37:51;6.07;;;5.67;;
5752;SDS011;2901;42.140;24.760;2023-12-04T00:40:16;5.63;;;5.23;;
5752;SDS011;2901;42.140;24.760;2023-12-04T00:42:42;5.30;;;4.90;;
5752;SDS011;2901;42.140;24.760;2023-12-04T00:45:07;6.67;;;5.70;;
5752;SDS011;2901;42.140;24.760;2023-12-04T00:47:33;6.40;;;5.63;;
5752;SDS011;2901;42.140;24.760;2023-12-04T00:49:58;5.50;;;5.10;;
5752;SDS011;2901;42.140;24.760;2023-12-04T00:52:24;5.17;;;4.87;;
5752;SDS011;2901;42.140;24.760;2023-12-04T00:54:49;5.80;;;5.40;;
5752;SDS011;2901;42.140;24.760;2023-12-04T00:57:14;5.70;;;5.30;;
5752;SDS011;2901;42.140;24.760;2023-12-04T00:59:40;5.50;;;5.00;;
5752;SDS011;2901;42.140;24.760;2023-12-04T01:02:06;5.83;;;5.43;;
5752;SDS011;2901;42.140;24.760;2023-12-04T01:04:32;5.40;;;5.00;;
5752;SDS011;2901;42.140;24.760;2023-12-04T01:06:57;4.53;;;4.23;;
5752;SDS011;2901;42.140;24.760;2023-12-04T01:09:22;5.73;;;5.27;;
5752;SDS011;2901;42.140;24.760;2023-12-04T01:11:58;6.13;;;5.73;;
5752;SDS011;2901;42.140;24.760;2023-12-04T01:14:23;4.83;;;4.53;;
5752;SDS011;2901;42.140;24.760;2023-12-04T01:16:49;4.37;;;4.07;;
5752;SDS011;2901;42.140;24.760;2023-12-04T01:19:14;4.43;;;4.13;;
5752;SDS011;2901;42.140;24.760;2023-12-04T01:21:39;5.20;;;4.80;;
5752;SDS011;2901;42.140;24.760;2023-12-04T01:24:05;4.43;;;4.23;;
5752;SDS011;2901;42.140;24.760;2023-12-04T01:26:30;4.53;;;4.13;;
5752;SDS011;2901;42.140;24.760;2023-12-04T01:28:56;5.17;;;4.87;;
5752;SDS011;2901;42.140;24.760;2023-12-04T01:31:21;4.57;;;4.27;;
5752;SDS011;2901;42.140;24.760;2023-12-04T01:33:46;4.77;;;4.47;;
5752;SDS011;2901;42.140;24.760;2023-12-04T01:36:12;3.90;;;3.60;;
5752;SDS011;2901;42.140;24.760;2023-12-04T01:38:38;4.00;;;3.70;;
5752;SDS011;2901;42.140;24.760;2023-12-04T01:41:03;4.50;;;4.20;;
5752;SDS011;2901;42.140;24.760;2023-12-04T01:43:29;5.37;;;4.97;;
5752;SDS011;2901;42.140;24.760;2023-12-04T01:45:55;4.57;;;4.33;;
5752;SDS011;2901;42.140;24.760;2023-12-04T01:48:21;5.07;;;4.77;;
5752;SDS011;2901;42.140;24.760;2023-12-04T01:50:47;4.47;;;4.17;;
5752;SDS011;2901;42.140;24.760;2023-12-04T01:53:13;4.40;;;4.10;;
5752;SDS011;2901;42.140;24.760;2023-12-04T01:55:39;4.70;;;4.40;;
5752;SDS011;2901;42.140;24.760;2023-12-04T01:58:06;4.83;;;4.33;;
5752;SDS011;2901;42.140;24.760;2023-12-04T02:00:32;3.40;;;3.10;;
5752;SDS011;2901;42.140;24.760;2023-12-04T02:02:57;3.90;;;3.70;;
5752;SDS011;2901;42.140;24.760;2023-12-04T02:05:24;4.20;;;3.87;;
5752;SDS011;2901;42.140;24.760;2023-12-04T02:07:51;3.93;;;3.73;;
5752;SDS011;2901;42.140;24.760;2023-12-04T02:10:17;3.97;;;3.77;;
5752;SDS011;2901;42.140;24.760;2023-12-04T02:12:43;4.17;;;3.87;;
5752;SDS011;2901;42.140;24.760;2023-12-04T02:15:09;4.07;;;3.77;;
5752;SDS011;2901;42.140;24.760;2023-12-04T02:17:35;4.07;;;3.87;;
5752;SDS011;2901;42.140;24.760;2023-12-04T02:20:01;4.47;;;4.17;;
5752;SDS011;2901;42.140;24.760;2023-12-04T02:22:28;3.47;;;3.27;;
5752;SDS011;2901;42.140;24.760;2023-12-04T02:24:54;4.10;;;3.87;;
5752;SDS011;2901;42.140;24.760;2023-12-04T02:27:25;4.23;;;4.03;;
5752;SDS011;2901;42.140;24.760;2023-12-04T02:29:56;4.23;;;3.90;;
5752;SDS011;2901;42.140;24.760;2023-12-04T02:32:24;3.50;;;3.30;;
5752;SDS011;2901;42.140;24.760;2023-12-04T02:34:55;3.37;;;3.17;;
5752;SDS011;2901;42.140;24.760;2023-12-04T02:37:22;3.07;;;2.97;;
5752;SDS011;2901;42.140;24.760;2023-12-04T02:39:52;2.83;;;2.63;;
5752;SDS011;2901;42.140;24.760;2023-12-04T02:42:20;3.47;;;3.27;;
5752;SDS011;2901;42.140;24.760;2023-12-04T02:44:45;2.83;;;2.70;;
5752;SDS011;2901;42.140;24.760;2023-12-04T02:47:11;4.80;;;3.27;;
5752;SDS011;2901;42.140;24.760;2023-12-04T02:49:37;3.33;;;3.13;;
5752;SDS011;2901;42.140;24.760;2023-12-04T02:52:02;2.97;;;2.77;;
5752;SDS011;2901;42.140;24.760;2023-12-04T02:54:28;3.10;;;2.90;;
5752;SDS011;2901;42.140;24.760;2023-12-04T02:56:54;2.93;;;2.73;;
5752;SDS011;2901;42.140;24.760;2023-12-04T02:59:19;2.43;;;2.33;;
5752;SDS011;2901;42.140;24.760;2023-12-04T03:01:44;5.43;;;3.67;;
5752;SDS011;2901;42.140;24.760;2023-12-04T03:04:10;3.07;;;2.87;;
5752;SDS011;2901;42.140;24.760;2023-12-04T03:06:35;3.70;;;3.47;;
5752;SDS011;2901;42.140;24.760;2023-12-04T03:09:02;3.80;;;3.60;;
5752;SDS011;2901;42.140;24.760;2023-12-04T03:11:28;3.20;;;2.90;;
5752;SDS011;2901;42.140;24.760;2023-12-04T03:13:54;3.70;;;3.40;;
5752;SDS011;2901;42.140;24.760;2023-12-04T03:16:20;3.77;;;3.57;;
5752;SDS011;2901;42.140;24.760;2023-12-04T03:18:45;3.17;;;2.87;;
5752;SDS011;2901;42.140;24.760;2023-12-04T03:21:10;4.87;;;3.97;;
5752;SDS011;2901;42.140;24.760;2023-12-04T03:23:36;4.37;;;3.47;;
5752;SDS011;2901;42.140;24.760;2023-12-04T03:26:01;3.63;;;3.43;;
5752;SDS011;2901;42.140;24.760;2023-12-04T03:28:27;3.83;;;3.50;;
5752;SDS011;2901;42.140;24.760;2023-12-04T03:30:53;3.60;;;3.40;;
5752;SDS011;2901;42.140;24.760;2023-12-04T03:33:18;3.73;;;3.53;;
5752;SDS011;2901;42.140;24.760;2023-12-04T03:35:43;3.33;;;3.20;;
5752;SDS011;2901;42.140;24.760;2023-12-04T03:38:09;4.13;;;3.13;;
5752;SDS011;2901;42.140;24.760;2023-12-04T03:40:34;4.13;;;3.70;;
5752;SDS011;2901;42.140;24.760;2023-12-04T03:43:00;3.23;;;3.03;;
5752;SDS011;2901;42.140;24.760;2023-12-04T03:45:25;5.83;;;3.77;;
5752;SDS011;2901;42.140;24.760;2023-12-04T03:47:50;3.73;;;3.53;;
5752;SDS011;2901;42.140;24.760;2023-12-04T03:50:16;4.37;;;3.67;;
5752;SDS011;2901;42.140;24.760;2023-12-04T03:52:41;2.77;;;2.63;;
5752;SDS011;2901;42.140;24.760;2023-12-04T03:55:07;4.33;;;4.13;;
5752;SDS011;2901;42.140;24.760;2023-12-04T03:57:33;3.13;;;2.83;;
5752;SDS011;2901;42.140;24.760;2023-12-04T03:59:58;2.93;;;2.73;;
5752;SDS011;2901;42.140;24.760;2023-12-04T04:02:24;3.23;;;3.03;;
5752;SDS011;2901;42.140;24.760;2023-12-04T04:04:49;3.13;;;2.93;;
5752;SDS011;2901;42.140;24.760;2023-12-04T04:07:18;3.57;;;3.37;;
5752;SDS011;2901;42.140;24.760;2023-12-04T04:09:43;3.33;;;3.13;;
5752;SDS011;2901;42.140;24.760;2023-12-04T04:12:09;3.93;;;3.37;;
5752;SDS011;2901;42.140;24.760;2023-12-04T04:14:34;3.60;;;3.40;;
5752;SDS011;2901;42.140;24.760;2023-12-04T04:16:59;3.37;;;3.13;;
5752;SDS011;2901;42.140;24.760;2023-12-04T04:19:25;4.07;;;3.77;;
5752;SDS011;2901;42.140;24.760;2023-12-04T04:21:50;3.37;;;3.23;;
5752;SDS011;2901;42.140;24.760;2023-12-04T04:24:16;3.40;;;3.20;;
5752;SDS011;2901;42.140;24.760;2023-12-04T04:26:41;3.70;;;3.40;;
5752;SDS011;2901;42.140;24.760;2023-12-04T04:29:06;3.27;;;3.07;;
5752;SDS011;2901;42.140;24.760;2023-12-04T04:31:32;3.83;;;3.53;;
5752;SDS011;2901;42.140;24.760;2023-12-04T04:33:57;4.07;;;3.70;;
5752;SDS011;2901;42.140;24.760;2023-12-04T04:36:22;4.57;;;4.27;;
5752;SDS011;2901;42.140;24.760;2023-12-04T04:38:48;4.33;;;3.30;;
5752;SDS011;2901;42.140;24.760;2023-12-04T04:41:14;3.93;;;3.67;;
5752;SDS011;2901;42.140;24.760;2023-12-04T04:43:42;4.97;;;3.80;;
5752;SDS011;2901;42.140;24.760;2023-12-04T04:46:08;4.43;;;3.97;;
5752;SDS011;2901;42.140;24.760;2023-12-04T04:48:34;3.37;;;3.17;;
5752;SDS011;2901;42.140;24.760;2023-12-04T04:50:59;3.50;;;3.30;;
5752;SDS011;2901;42.140;24.760;2023-12-04T04:53:24;3.97;;;3.77;;
5752;SDS011;2901;42.140;24.760;2023-12-04T04:55:50;4.57;;;4.27;;
5752;SDS011;2901;42.140;24.760;2023-12-04T04:58:16;4.67;;;4.27;;
5752;SDS011;2901;42.140;24.760;2023-12-04T05:00:41;3.53;;;3.23;;
5752;SDS011;2901;42.140;24.760;2023-12-04T05:03:07;4.00;;;3.80;;
5752;SDS011;2901;42.140;24.760;2023-12-04T05:05:32;4.83;;;4.27;;
5752;SDS011;2901;42.140;24.760;2023-12-04T05:07:57;5.00;;;4.70;;
5752;SDS011;2901;42.140;24.760;2023-12-04T05:10:23;5.43;;;5.10;;
5752;SDS011;2901;42.140;24.760;2023-12-04T05:12:48;4.73;;;4.37;;
5752;SDS011;2901;42.140;24.760;2023-12-04T05:15:14;5.00;;;4.70;;
5752;SDS011;2901;42.140;24.760;2023-12-04T05:17:39;7.03;;;4.17;;
5752;SDS011;2901;42.140;24.760;2023-12-04T05:20:05;4.77;;;4.47;;
5752;SDS011;2901;42.140;24.760;2023-12-04T05:22:31;5.60;;;5.20;;
5752;SDS011;2901;42.140;24.760;2023-12-04T05:24:56;5.87;;;5.40;;
5752;SDS011;2901;42.140;24.760;2023-12-04T05:27:22;5.27;;;4.87;;
5752;SDS011;2901;42.140;24.760;2023-12-04T05:29:47;5.13;;;4.73;;
5752;SDS011;2901;42.140;24.760;2023-12-04T05:32:13;5.77;;;5.23;;
5752;SDS011;2901;42.140;24.760;2023-12-04T05:34:38;4.93;;;4.47;;
5752;SDS011;2901;42.140;24.760;2023-12-04T05:37:04;4.13;;;3.80;;
5752;SDS011;2901;42.140;24.760;2023-12-04T05:39:29;4.50;;;4.20;;
5752;SDS011;2901;42.140;24.760;2023-12-04T05:41:54;4.20;;;3.97;;
5752;SDS011;2901;42.140;24.760;2023-12-04T05:44:20;6.23;;;3.43;;
5752;SDS011;2901;42.140;24.760;2023-12-04T05:46:45;4.67;;;4.27;;
5752;SDS011;2901;42.140;24.760;2023-12-04T05:49:10;4.40;;;4.10;;
5752;SDS011;2901;42.140;24.760;2023-12-04T05:51:36;4.10;;;3.90;;
5752;SDS011;2901;42.140;24.760;2023-12-04T05:54:01;5.63;;;3.40;;
5752;SDS011;2901;42.140;24.760;2023-12-04T05:56:27;3.73;;;3.53;;
5752;SDS011;2901;42.140;24.760;2023-12-04T05:58:52;3.70;;;3.50;;
5752;SDS011;2901;42.140;24.760;2023-12-04T06:01:17;4.23;;;4.03;;
5752;SDS011;2901;42.140;24.760;2023-12-04T06:03:44;4.97;;;4.57;;
5752;SDS011;2901;42.140;24.760;2023-12-04T06:06:09;4.00;;;3.80;;
5752;SDS011;2901;42.140;24.760;2023-12-04T06:08:34;4.53;;;4.17;;
5752;SDS011;2901;42.140;24.760;2023-12-04T06:11:00;5.00;;;4.60;;
5752;SDS011;2901;42.140;24.760;2023-12-04T06:13:25;4.37;;;3.93;;
5752;SDS011;2901;42.140;24.760;2023-12-04T06:15:50;4.80;;;4.40;;
5752;SDS011;2901;42.140;24.760;2023-12-04T06:18:16;5.23;;;4.80;;
5752;SDS011;2901;42.140;24.760;2023-12-04T06:20:41;4.63;;;4.33;;
5752;SDS011;2901;42.140;24.760;2023-12-04T06:23:07;5.77;;;4.47;;
5752;SDS011;2901;42.140;24.760;2023-12-04T06:25:32;5.37;;;4.97;;
5752;SDS011;2901;42.140;24.760;2023-12-04T06:27:58;4.63;;;4.33;;
5752;SDS011;2901;42.140;24.760;2023-12-04T06:30:24;4.20;;;3.90;;
5752;SDS011;2901;42.140;24.760;2023-12-04T06:32:49;4.77;;;4.37;;
5752;SDS011;2901;42.140;24.760;2023-12-04T06:35:15;4.20;;;3.90;;
5752;SDS011;2901;42.140;24.760;2023-12-04T06:37:41;4.40;;;4.20;;
5752;SDS011;2901;42.140;24.760;2023-12-04T06:40:08;5.90;;;3.63;;
5752;SDS011;2901;42.140;24.760;2023-12-04T06:42:36;4.43;;;4.03;;
5752;SDS011;2901;42.140;24.760;2023-12-04T06:45:01;4.97;;;4.50;;
5752;SDS011;2901;42.140;24.760;2023-12-04T06:47:27;3.30;;;3.10;;
5752;SDS011;2901;42.140;24.760;2023-12-04T06:49:56;4.97;;;4.00;;
5752;SDS011;2901;42.140;24.760;2023-12-04T06:52:21;4.17;;;3.87;;
5752;SDS011;2901;42.140;24.760;2023-12-04T06:54:47;4.10;;;3.80;;
5752;SDS011;2901;42.140;24.760;2023-12-04T06:57:12;4.17;;;3.17;;
5752;SDS011;2901;42.140;24.760;2023-12-04T06:59:40;6.37;;;3.10;;
5752;SDS011;2901;42.140;24.760;2023-12-04T07:02:06;4.07;;;3.60;;
5752;SDS011;2901;42.140;24.760;2023-12-04T07:04:32;3.33;;;3.07;;
5752;SDS011;2901;42.140;24.760;2023-12-04T07:06:57;3.73;;;3.53;;
5752;SDS011;2901;42.140;24.760;2023-12-04T07:09:26;4.17;;;3.93;;
5752;SDS011;2901;42.140;24.760;2023-12-04T07:11:52;3.53;;;3.33;;
5752;SDS011;2901;42.140;24.760;2023-12-04T07:14:17;3.33;;;3.13;;
5752;SDS011;2901;42.140;24.760;2023-12-04T07:16:43;3.57;;;3.37;;
5752;SDS011;2901;42.140;24.760;2023-12-04T07:19:09;4.17;;;3.47;;
5752;SDS011;2901;42.140;24.760;2023-12-04T07:21:35;7.17;;;3.63;;
5752;SDS011;2901;42.140;24.760;2023-12-04T07:24:01;3.93;;;3.73;;
5752;SDS011;2901;42.140;24.760;2023-12-04T07:26:27;3.60;;;3.40;;
5752;SDS011;2901;42.140;24.760;2023-12-04T07:28:53;4.07;;;3.87;;
5752;SDS011;2901;42.140;24.760;2023-12-04T07:31:18;3.60;;;3.30;;
5752;SDS011;2901;42.140;24.760;2023-12-04T07:33:44;4.13;;;3.83;;
5752;SDS011;2901;42.140;24.760;2023-12-04T07:36:09;4.03;;;3.83;;
5752;SDS011;2901;42.140;24.760;2023-12-04T07:38:35;3.77;;;3.47;;
5752;SDS011;2901;42.140;24.760;2023-12-04T07:41:00;3.77;;;3.57;;
5752;SDS011;2901;42.140;24.760;2023-12-04T07:43:26;7.90;;;4.07;;
5752;SDS011;2901;42.140;24.760;2023-12-04T07:45:52;4.20;;;3.97;;
5752;SDS011;2901;42.140;24.760;2023-12-04T07:48:20;5.50;;;4.13;;
5752;SDS011;2901;42.140;24.760;2023-12-04T07:50:45;4.03;;;3.57;;
5752;SDS011;2901;42.140;24.760;2023-12-04T07:53:10;3.20;;;3.00;;
5752;SDS011;2901;42.140;24.760;2023-12-04T07:55:37;6.73;;;3.77;;
5752;SDS011;2901;42.140;24.760;2023-12-04T07:58:02;3.43;;;3.07;;
5752;SDS011;2901;42.140;24.760;2023-12-04T08:00:28;3.73;;;3.30;;
5752;SDS011;2901;42.140;24.760;2023-12-04T08:02:53;3.70;;;3.50;;
5752;SDS011;2901;42.140;24.760;2023-12-04T08:05:18;3.63;;;3.43;;
5752;SDS011;2901;42.140;24.760;2023-12-04T08:07:44;2.57;;;2.37;;
5752;SDS011;2901;42.140;24.760;2023-12-04T08:10:10;5.33;;;3.00;;
5752;SDS011;2901;42.140;24.760;2023-12-04T08:12:35;3.63;;;3.43;;
5752;SDS011;2901;42.140;24.760;2023-12-04T08:15:00;3.20;;;3.00;;
5752;SDS011;2901;42.140;24.760;2023-12-04T08:17:29;3.90;;;3.67;;
5752;SDS011;2901;42.140;24.760;2023-12-04T08:19:54;8.83;;;4.83;;
5752;SDS011;2901;42.140;24.760;2023-12-04T08:22:20;4.70;;;4.40;;
5752;SDS011;2901;42.140;24.760;2023-12-04T08:24:45;3.37;;;3.17;;
5752;SDS011;2901;42.140;24.760;2023-12-04T08:27:10;3.60;;;3.40;;
5752;SDS011;2901;42.140;24.760;2023-12-04T08:29:36;3.27;;;3.10;;
5752;SDS011;2901;42.140;24.760;2023-12-04T08:32:01;3.30;;;3.10;;
5752;SDS011;2901;42.140;24.760;2023-12-04T08:34:27;3.77;;;3.47;;
5752;SDS011;2901;42.140;24.760;2023-12-04T08:36:52;3.37;;;3.17;;
5752;SDS011;2901;42.140;24.760;2023-12-04T08:39:18;3.90;;;3.40;;
5752;SDS011;2901;42.140;24.760;2023-12-04T08:41:46;4.17;;;3.77;;
5752;SDS011;2901;42.140;24.760;2023-12-04T08:44:14;3.80;;;3.50;;
5752;SDS011;2901;42.140;24.760;2023-12-04T08:46:40;4.13;;;3.93;;
5752;SDS011;2901;42.140;24.760;2023-12-04T08:49:06;4.10;;;3.80;;
5752;SDS011;2901;42.140;24.760;2023-12-04T08:51:32;3.57;;;3.27;;
5752;SDS011;2901;42.140;24.760;2023-12-04T08:53:57;3.10;;;2.90;;
5752;SDS011;2901;42.140;24.760;2023-12-04T08:56:22;3.80;;;3.50;;
5752;SDS011;2901;42.140;24.760;2023-12-04T08:58:48;4.47;;;4.17;;
5752;SDS011;2901;42.140;24.760;2023-12-04T09:01:15;4.80;;;4.40;;
5752;SDS011;2901;42.140;24.760;2023-12-04T09:03:40;5.10;;;4.43;;
5752;SDS011;2901;42.140;24.760;2023-12-04T09:06:06;3.43;;;3.13;;
5752;SDS011;2901;42.140;24.760;2023-12-04T09:08:32;4.73;;;4.43;;
5752;SDS011;2901;42.140;24.760;2023-12-04T09:10:57;5.00;;;4.63;;
5752;SDS011;2901;42.140;24.760;2023-12-04T09:13:23;6.03;;;5.43;;
5752;SDS011;2901;42.140;24.760;2023-12-04T09:15:49;4.53;;;4.23;;
5752;SDS011;2901;42.140;24.760;2023-12-04T09:18:14;4.77;;;4.47;;
5752;SDS011;2901;42.140;24.760;2023-12-04T09:20:40;5.27;;;4.93;;
5752;SDS011;2901;42.140;24.760;2023-12-04T09:23:06;5.07;;;4.77;;
5752;SDS011;2901;42.140;24.760;2023-12-04T09:25:34;5.77;;;5.40;;
5752;SDS011;2901;42.140;24.760;2023-12-04T09:28:00;4.90;;;4.53;;
5752;SDS011;2901;42.140;24.760;2023-12-04T09:30:26;5.33;;;4.93;;
5752;SDS011;2901;42.140;24.760;2023-12-04T09:32:51;5.17;;;4.67;;
5752;SDS011;2901;42.140;24.760;2023-12-04T09:35:16;5.07;;;4.77;;
5752;SDS011;2901;42.140;24.760;2023-12-04T09:37:42;4.80;;;4.50;;
5752;SDS011;2901;42.140;24.760;2023-12-04T09:40:07;6.07;;;5.57;;
5752;SDS011;2901;42.140;24.760;2023-12-04T09:42:34;4.43;;;4.13;;
5752;SDS011;2901;42.140;24.760;2023-12-04T09:45:00;5.33;;;4.93;;
5752;SDS011;2901;42.140;24.760;2023-12-04T09:47:26;4.30;;;4.00;;
5752;SDS011;2901;42.140;24.760;2023-12-04T09:49:53;6.47;;;4.57;;
5752;SDS011;2901;42.140;24.760;2023-12-04T09:52:20;5.10;;;4.80;;
5752;SDS011;2901;42.140;24.760;2023-12-04T09:54:46;4.73;;;4.43;;
5752;SDS011;2901;42.140;24.760;2023-12-04T09:57:11;4.63;;;4.33;;
5752;SDS011;2901;42.140;24.760;2023-12-04T09:59:38;8.20;;;5.90;;
5752;SDS011;2901;42.140;24.760;2023-12-04T10:02:04;4.90;;;4.43;;
5752;SDS011;2901;42.140;24.760;2023-12-04T10:04:30;4.37;;;3.97;;
5752;SDS011;2901;42.140;24.760;2023-12-04T10:06:57;5.27;;;4.87;;
5752;SDS011;2901;42.140;24.760;2023-12-04T10:09:22;4.83;;;4.47;;
5752;SDS011;2901;42.140;24.760;2023-12-04T10:11:50;8.17;;;7.37;;
5752;SDS011;2901;42.140;24.760;2023-12-04T10:14:20;7.40;;;6.73;;
5752;SDS011;2901;42.140;24.760;2023-12-04T10:16:46;5.23;;;4.83;;
5752;SDS011;2901;42.140;24.760;2023-12-04T10:19:16;5.50;;;5.10;;
5752;SDS011;2901;42.140;24.760;2023-12-04T10:21:47;9.63;;;7.07;;
5752;SDS011;2901;42.140;24.760;2023-12-04T10:24:30;8.07;;;7.27;;
5752;SDS011;2901;42.140;24.760;2023-12-04T10:26:56;12.03;;;10.13;;
5752;SDS011;2901;42.140;24.760;2023-12-04T10:29:21;7.67;;;6.90;;
5752;SDS011;2901;42.140;24.760;2023-12-04T10:31:47;5.67;;;5.17;;
5752;SDS011;2901;42.140;24.760;2023-12-04T10:34:15;5.33;;;4.93;;
5752;SDS011;2901;42.140;24.760;2023-12-04T10:36:41;5.23;;;4.80;;
5752;SDS011;2901;42.140;24.760;2023-12-04T10:39:06;7.17;;;6.53;;
5752;SDS011;2901;42.140;24.760;2023-12-04T10:41:32;5.43;;;5.03;;
5752;SDS011;2901;42.140;24.760;2023-12-04T10:43:58;5.70;;;5.30;;
5752;SDS011;2901;42.140;24.760;2023-12-04T10:46:25;5.63;;;5.10;;
5752;SDS011;2901;42.140;24.760;2023-12-04T10:48:51;5.10;;;4.70;;
5752;SDS011;2901;42.140;24.760;2023-12-04T10:51:17;5.20;;;4.80;;
5752;SDS011;2901;42.140;24.760;2023-12-04T10:53:46;7.00;;;5.13;;
5752;SDS011;2901;42.140;24.760;2023-12-04T10:56:19;7.27;;;6.17;;
5752;SDS011;2901;42.140;24.760;2023-12-04T10:58:54;6.27;;;5.73;;
5752;SDS011;2901;42.140;24.760;2023-12-04T11:01:22;5.97;;;5.13;;
5752;SDS011;2901;42.140;24.760;2023-12-04T11:03:51;6.07;;;5.67;;
5752;SDS011;2901;42.140;24.760;2023-12-04T11:06:20;5.63;;;4.73;;
5752;SDS011;2901;42.140;24.760;2023-12-04T11:08:47;4.60;;;4.27;;
5752;SDS011;2901;42.140;24.760;2023-12-04T11:11:19;5.77;;;5.23;;
5752;SDS011;2901;42.140;24.760;2023-12-04T11:13:53;5.57;;;5.27;;
5752;SDS011;2901;42.140;24.760;2023-12-04T11:22:12;5.47;;;5.03;;
5752;SDS011;2901;42.140;24.760;2023-12-04T11:24:39;5.40;;;4.67;;
5752;SDS011;2901;42.140;24.760;2023-12-04T11:27:05;5.70;;;5.17;;
5752;SDS011;2901;42.140;24.760;2023-12-04T11:29:32;7.60;;;7.00;;
5752;SDS011;2901;42.140;24.760;2023-12-04T11:31:58;8.47;;;7.17;;
5752;SDS011;2901;42.140;24.760;2023-12-04T11:34:24;4.97;;;4.65;;
5752;SDS011;2901;42.140;24.760;2023-12-04T11:36:50;5.85;;;5.20;;
5752;SDS011;2901;42.140;24.760;2023-12-04T11:39:16;4.65;;;4.25;;
5752;SDS011;2901;42.140;24.760;2023-12-04T11:41:44;6.05;;;5.55;;
5752;SDS011;2901;42.140;24.760;2023-12-04T11:44:13;9.82;;;5.75;;
5752;SDS011;2901;42.140;24.760;2023-12-04T11:46:39;5.45;;;5.00;;
5752;SDS011;2901;42.140;24.760;2023-12-04T11:49:30;4.82;;;4.53;;
5752;SDS011;2901;42.140;24.760;2023-12-04T11:51:57;4.68;;;4.38;;
5752;SDS011;2901;42.140;24.760;2023-12-04T11:54:23;6.38;;;4.30;;
5752;SDS011;2901;42.140;24.760;2023-12-04T11:56:59;5.10;;;4.70;;
5752;SDS011;2901;42.140;24.760;2023-12-04T11:59:24;5.30;;;4.20;;
5752;SDS011;2901;42.140;24.760;2023-12-04T12:01:51;4.60;;;4.30;;
5752;SDS011;2901;42.140;24.760;2023-12-04T12:04:20;5.30;;;4.80;;
5752;SDS011;2901;42.140;24.760;2023-12-04T12:06:45;9.15;;;5.85;;
5752;SDS011;2901;42.140;24.760;2023-12-04T12:09:11;5.70;;;5.30;;
5752;SDS011;2901;42.140;24.760;2023-12-04T12:11:36;5.88;;;5.25;;
5752;SDS011;2901;42.140;24.760;2023-12-04T12:14:02;5.57;;;5.07;;
5752;SDS011;2901;42.140;24.760;2023-12-04T12:16:27;7.85;;;6.10;;
5752;SDS011;2901;42.140;24.760;2023-12-04T12:18:53;5.68;;;5.28;;
5752;SDS011;2901;42.140;24.760;2023-12-04T12:21:18;4.95;;;4.65;;
5752;SDS011;2901;42.140;24.760;2023-12-04T12:23:44;6.28;;;5.78;;
5752;SDS011;2901;42.140;24.760;2023-12-04T12:26:09;7.97;;;6.13;;
5752;SDS011;2901;42.140;24.760;2023-12-04T12:28:36;15.32;;;7.25;;
5752;SDS011;2901;42.140;24.760;2023-12-04T12:31:02;14.07;;;5.82;;
5752;SDS011;2901;42.140;24.760;2023-12-04T12:33:28;6.03;;;5.68;;
5752;SDS011;2901;42.140;24.760;2023-12-04T12:35:54;7.15;;;6.55;;
5752;SDS011;2901;42.140;24.760;2023-12-04T12:38:20;7.18;;;6.40;;
5752;SDS011;2901;42.140;24.760;2023-12-04T12:40:46;7.07;;;6.40;;
5752;SDS011;2901;42.140;24.760;2023-12-04T12:43:11;10.60;;;6.82;;
5752;SDS011;2901;42.140;24.760;2023-12-04T12:45:40;7.35;;;5.38;;
5752;SDS011;2901;42.140;24.760;2023-12-04T12:48:14;10.43;;;6.78;;
5752;SDS011;2901;42.140;24.760;2023-12-04T12:50:43;6.60;;;6.00;;
5752;SDS011;2901;42.140;24.760;2023-12-04T12:53:12;6.35;;;5.78;;
5752;SDS011;2901;42.140;24.760;2023-12-04T12:55:40;6.95;;;6.40;;
5752;SDS011;2901;42.140;24.760;2023-12-04T12:58:05;9.15;;;5.57;;
5752;SDS011;2901;42.140;24.760;2023-12-04T13:00:32;7.25;;;6.50;;
5752;SDS011;2901;42.140;24.760;2023-12-04T13:02:59;7.20;;;5.50;;
5752;SDS011;2901;42.140;24.760;2023-12-04T13:05:24;10.15;;;6.53;;
5752;SDS011;2901;42.140;24.760;2023-12-04T13:07:50;8.82;;;7.35;;
5752;SDS011;2901;42.140;24.760;2023-12-04T13:10:15;9.18;;;6.72;;
5752;SDS011;2901;42.140;24.760;2023-12-04T13:12:40;7.43;;;6.85;;
5752;SDS011;2901;42.140;24.760;2023-12-04T13:15:06;7.57;;;6.97;;
5752;SDS011;2901;42.140;24.760;2023-12-04T13:17:32;8.75;;;7.95;;
5752;SDS011;2901;42.140;24.760;2023-12-04T13:19:57;10.93;;;8.07;;
5752;SDS011;2901;42.140;24.760;2023-12-04T13:22:23;21.83;;;10.60;;
5752;SDS011;2901;42.140;24.760;2023-12-04T13:24:49;9.90;;;8.95;;
5752;SDS011;2901;42.140;24.760;2023-12-04T13:27:14;8.07;;;6.85;;
5752;SDS011;2901;42.140;24.760;2023-12-04T13:29:40;9.75;;;8.05;;
5752;SDS011;2901;42.140;24.760;2023-12-04T13:32:05;9.80;;;8.65;;
5752;SDS011;2901;42.140;24.760;2023-12-04T13:34:31;8.77;;;7.95;;
5752;SDS011;2901;42.140;24.760;2023-12-04T13:36:57;9.50;;;8.60;;
5752;SDS011;2901;42.140;24.760;2023-12-04T13:39:22;9.05;;;7.63;;
5752;SDS011;2901;42.140;24.760;2023-12-04T13:42:01;9.38;;;8.57;;
5752;SDS011;2901;42.140;24.760;2023-12-04T13:44:45;9.52;;;8.82;;
5752;SDS011;2901;42.140;24.760;2023-12-04T13:47:10;8.95;;;8.07;;
5752;SDS011;2901;42.140;24.760;2023-12-04T13:49:37;8.40;;;7.70;;
5752;SDS011;2901;42.140;24.760;2023-12-04T13:52:02;11.05;;;8.50;;
5752;SDS011;2901;42.140;24.760;2023-12-04T13:54:32;12.65;;;9.10;;
5752;SDS011;2901;42.140;24.760;2023-12-04T13:57:09;11.93;;;9.43;;
5752;SDS011;2901;42.140;24.760;2023-12-04T13:59:38;10.47;;;9.37;;
5752;SDS011;2901;42.140;24.760;2023-12-04T14:02:04;19.47;;;12.33;;
5752;SDS011;2901;42.140;24.760;2023-12-04T14:04:35;14.97;;;11.53;;
5752;SDS011;2901;42.140;24.760;2023-12-04T14:07:00;11.67;;;10.47;;
5752;SDS011;2901;42.140;24.760;2023-12-04T14:09:26;12.53;;;10.20;;
5752;SDS011;2901;42.140;24.760;2023-12-04T14:11:52;12.83;;;11.00;;
5752;SDS011;2901;42.140;24.760;2023-12-04T14:14:17;12.57;;;10.40;;
5752;SDS011;2901;42.140;24.760;2023-12-04T14:16:43;17.43;;;10.47;;
5752;SDS011;2901;42.140;24.760;2023-12-04T14:19:11;13.33;;;11.47;;
5752;SDS011;2901;42.140;24.760;2023-12-04T14:21:37;11.97;;;9.43;;
5752;SDS011;2901;42.140;24.760;2023-12-04T14:24:03;12.07;;;9.87;;
5752;SDS011;2901;42.140;24.760;2023-12-04T14:26:29;11.60;;;10.50;;
5752;SDS011;2901;42.140;24.760;2023-12-04T14:28:54;11.47;;;10.27;;
5752;SDS011;2901;42.140;24.760;2023-12-04T14:31:22;14.77;;;10.80;;
5752;SDS011;2901;42.140;24.760;2023-12-04T14:33:48;9.77;;;8.77;;
5752;SDS011;2901;42.140;24.760;2023-12-04T14:36:14;14.60;;;10.00;;
5752;SDS011;2901;42.140;24.760;2023-12-04T14:38:40;10.13;;;9.27;;
5752;SDS011;2901;42.140;24.760;2023-12-04T14:41:05;10.80;;;9.80;;
5752;SDS011;2901;42.140;24.760;2023-12-04T14:43:32;12.33;;;10.90;;
5752;SDS011;2901;42.140;24.760;2023-12-04T14:45:57;11.50;;;10.60;;
5752;SDS011;2901;42.140;24.760;2023-12-04T14:48:23;11.37;;;10.20;;
5752;SDS011;2901;42.140;24.760;2023-12-04T14:50:48;13.40;;;12.10;;
5752;SDS011;2901;42.140;24.760;2023-12-04T14:53:14;15.87;;;11.10;;
5752;SDS011;2901;42.140;24.760;2023-12-04T14:56:02;24.43;;;11.87;;
5752;SDS011;2901;42.140;24.760;2023-12-04T14:58:46;15.20;;;11.47;;
5752;SDS011;2901;42.140;24.760;2023-12-04T15:01:30;12.83;;;11.00;;